• Join FlightAware (Why Join?)
  • Login
  • US Flag GB Flag 
17:24 EDT


 

Airport Tracker/Info


-or-


 

Live Flight TrackerFlight Track Log ✈ AFL150 ✈ 20-Dec-2013 ✈ UUEE / SVO - MUHA / HAV

Flight Track Log - Related Links

Times and Time Zones

All times are in EST time to prevent confusion due to time zone crossing. See the AFL150 flight status page for this flight to view local times or setup timezone preferences in your user account.

Time Position Orientation Groundspeed Altitude Reporting Facility
EST Latitude Longitude Course Direction KTS MPH feet Rate Location/Type
05:35 56.0823 37.0988 307° West  Level Estimated
05:36 56.1511 36.9318 307° West  Level Estimated
05:37 56.2198 36.7643 306° West  Level Estimated
05:38 56.2882 36.5962 306° West  Level Estimated
05:39 56.3563 36.4275 306° West  Level Estimated
05:40 56.4243 36.2581 306° West  Level Estimated
05:41 56.4920 36.0882 306° West  Level Estimated
05:42 56.5594 35.9177 306° West  Level Estimated
05:43 56.6267 35.7465 306° West  Level Estimated
05:44 56.6937 35.5748 305° West  Level Estimated
05:45 56.7604 35.4024 305° West  Level Estimated
05:46 56.8269 35.2294 305° West  Level Estimated
05:47 56.8932 35.0558 305° West  Level Estimated
05:48 56.9593 34.8816 305° West  Level Estimated
05:49 57.0251 34.7068 305° West  Level Estimated
05:50 57.0906 34.5313 305° West  Level Estimated
05:51 57.1559 34.3553 304° West  Level Estimated
05:52 57.2210 34.1786 304° West  Level Estimated
05:53 57.2858 34.0013 304° West  Level Estimated
05:54 57.3504 33.8233 304° West  Level Estimated
05:55 57.4147 33.6448 304° West  Level Estimated
05:56 57.4787 33.4656 304° West  Level Estimated
05:57 57.5425 33.2858 304° West  Level Estimated
05:58 57.6061 33.1053 303° West  Level Estimated
05:59 57.6694 32.9242 303° West  Level Estimated
06:00 57.7324 32.7425 303° West  Level Estimated
06:01 57.7952 32.5602 303° West  Level Estimated
06:02 57.8577 32.3772 303° West  Level Estimated
06:03 57.9199 32.1936 303° West  Level Estimated
06:04 57.9819 32.0093 302° West  Level Estimated
06:05 58.0436 31.8244 302° West  Level Estimated
06:06 58.1050 31.6389 302° West  Level Estimated
06:07 58.1662 31.4528 302° West  Level Estimated
06:08 58.2271 31.2660 302° West  Level Estimated
06:09 58.2877 31.0785 302° West  Level Estimated
06:10 58.3481 30.8904 302° West  Level Estimated
06:11 58.4082 30.7017 301° West  Level Estimated
06:12 58.4679 30.5123 301° West  Level Estimated
06:13 58.5275 30.3223 301° West  Level Estimated
06:14 58.5867 30.1317 301° West  Level Estimated
06:15 58.6456 29.9404 301° West  Level Estimated
06:16 58.7043 29.7484 301° West  Level Estimated
06:17 58.7627 29.5558 300° West  Level Estimated
06:18 58.8208 29.3626 300° West  Level Estimated
06:19 58.8786 29.1687 300° West  Level Estimated
06:20 58.9361 28.9741 300° West  Level Estimated
06:21 58.9933 28.7790 300° West  Level Estimated
06:22 59.0502 28.5831 300° West  Level Estimated
06:23 59.1068 28.3867 299° West  Level Estimated
06:24 59.1632 28.1895 299° West  Level Estimated
06:25 59.2192 27.9917 299° West  Level Estimated
06:26 59.2749 27.7933 299° West  Level Estimated
06:27 59.3303 27.5942 299° West  Level Estimated
06:28 59.3855 27.3945 299° West  Level Estimated
06:29 59.4403 27.1942 298° West  Level Estimated
06:30 59.4948 26.9931 298° West  Level Estimated
06:31 59.5490 26.7915 298° West  Level Estimated
06:32 59.6029 26.5891 298° West  Level Estimated
06:33 59.6564 26.3862 298° West  Level Estimated
06:34 59.7097 26.1826 297° West  Level Estimated
06:35 59.7626 25.9783 297° West  Level Estimated
06:36 59.8153 25.7734 297° West  Level Estimated
06:37 59.8675 25.5678 297° West  Level Estimated
06:38 59.9195 25.3616 297° West  Level Estimated
06:39 59.9712 25.1548 297° West  Level Estimated
06:40 60.0225 24.9473 296° West  Level Estimated
06:41 60.0735 24.7392 296° West  Level Estimated
06:42 60.1242 24.5304 296° West  Level Estimated
06:43 60.1746 24.3210 296° West  Level Estimated
06:44 60.2246 24.1109 296° West  Level Estimated
06:45 60.2743 23.9002 296° West  Level Estimated
06:46 60.3236 23.6889 295° West  Level Estimated
06:47 60.3726 23.4769 295° West  Level Estimated
06:48 60.4213 23.2643 295° West  Level Estimated
06:49 60.4697 23.0511 295° West  Level Estimated
06:50 60.5177 22.8372 295° West  Level Estimated
06:51 60.5653 22.6227 294° West  Level Estimated
06:52 60.6126 22.4076 294° West  Level Estimated
06:53 60.6596 22.1918 294° West  Level Estimated
06:54 60.7062 21.9754 294° West  Level Estimated
06:55 60.7524 21.7584 294° West  Level Estimated
06:56 60.7984 21.5407 293° West  Level Estimated
06:57 60.8439 21.3224 293° West  Level Estimated
06:58 60.8891 21.1035 293° West  Level Estimated
06:59 60.9340 20.8840 293° West  Level Estimated
07:00 60.9785 20.6639 293° West  Level Estimated
07:01 61.0226 20.4432 293° West  Level Estimated
07:02 61.0664 20.2218 292° West  Level Estimated
07:03 61.1098 19.9998 292° West  Level Estimated
07:04 61.1528 19.7773 292° West  Level Estimated
07:05 61.1955 19.5541 292° West  Level Estimated
07:06 61.2378 19.3303 292° West  Level Estimated
07:07 61.2798 19.1059 291° West  Level Estimated
07:08 61.3213 18.8809 291° West  Level Estimated
07:09 61.3625 18.6554 291° West  Level Estimated
07:10 61.4033 18.4292 291° West  Level Estimated
07:11 61.4438 18.2024 291° West  Level Estimated
07:12 61.4838 17.9751 290° West  Level Estimated
07:13 61.5235 17.7472 290° West  Level Estimated
07:14 61.5628 17.5187 290° West  Level Estimated
07:15 61.6017 17.2896 290° West  Level Estimated
07:16 61.6403 17.0599 290° West  Level Estimated
07:17 61.6784 16.8297 289° West  Level Estimated
07:18 61.7162 16.5989 289° West  Level Estimated
07:19 61.7536 16.3676 289° West  Level Estimated
07:20 61.7906 16.1357 289° West  Level Estimated
07:21 61.8272 15.9032 289° West  Level Estimated
07:22 61.8634 15.6702 288° West  Level Estimated
07:23 61.8992 15.4366 288° West  Level Estimated
07:24 61.9346 15.2025 288° West  Level Estimated
07:25 61.9696 14.9678 288° West  Level Estimated
07:26 62.0042 14.7326 288° West  Level Estimated
07:27 62.0384 14.4969 287° West  Level Estimated
07:28 62.0722 14.2607 287° West  Level Estimated
07:29 62.1056 14.0239 287° West  Level Estimated
07:30 62.1386 13.7866 287° West  Level Estimated
07:31 62.1712 13.5488 286° West  Level Estimated
07:32 62.2034 13.3105 286° West  Level Estimated
07:33 62.2352 13.0716 286° West  Level Estimated
07:34 62.2665 12.8323 286° West  Level Estimated
07:35 62.2975 12.5925 286° West  Level Estimated
07:36 62.3280 12.3522 285° West  Level Estimated
07:37 62.3581 12.1114 285° West  Level Estimated
07:38 62.3878 11.8701 285° West  Level Estimated
07:39 62.4171 11.6284 285° West  Level Estimated
07:40 62.4460 11.3862 285° West  Level Estimated
07:41 62.4744 11.1435 284° West  Level Estimated
07:42 62.5024 10.9003 284° West  Level Estimated
07:43 62.5300 10.6567 284° West  Level Estimated
07:44 62.5572 10.4127 284° West  Level Estimated
07:45 62.5840 10.1682 283° West  Level Estimated
07:46 62.6103 9.9232 283° West  Level Estimated
07:47 62.6362 9.6779 283° West  Level Estimated
07:48 62.6616 9.4321 283° West  Level Estimated
07:49 62.6867 9.1859 283° West  Level Estimated
07:50 62.7113 8.9393 282° West  Level Estimated
07:51 62.7354 8.6923 282° West  Level Estimated
07:52 62.7592 8.4448 282° West  Level Estimated
07:53 62.7825 8.1970 282° West  Level Estimated
07:54 62.8053 7.9488 282° West  Level Estimated
07:55 62.8278 7.7002 281° West  Level Estimated
07:56 62.8497 7.4513 281° West  Level Estimated
07:57 62.8713 7.2019 281° West  Level Estimated
07:58 62.8924 6.9522 281° West  Level Estimated
07:59 62.9130 6.7022 280° West  Level Estimated
08:00 62.9333 6.4518 280° West  Level Estimated
08:01 62.9530 6.2010 280° West  Level Estimated
08:02 62.9724 5.9500 280° West  Level Estimated
08:03 62.9912 5.6985 280° West  Level Estimated
08:04 63.0097 5.4468 279° West  Level Estimated
08:05 63.0277 5.1948 279° West  Level Estimated
08:06 63.0452 4.9424 279° West  Level Estimated
08:07 63.0623 4.6898 279° West  Level Estimated
08:08 63.0789 4.4368 278° West  Level Estimated
08:09 63.0951 4.1836 278° West  Level Estimated
08:10 63.1109 3.9301 278° West  Level Estimated
08:11 63.1261 3.6763 278° West  Level Estimated
08:12 63.1410 3.4223 277° West  Level Estimated
08:13 63.1553 3.1680 277° West  Level Estimated
08:14 63.1693 2.9134 277° West  Level Estimated
08:15 63.1827 2.6586 277° West  Level Estimated
08:16 63.1957 2.4036 277° West  Level Estimated
08:17 63.2083 2.1484 276° West  Level Estimated
08:18 63.2204 1.8929 276° West  Level Estimated
08:19 63.2320 1.6372 276° West  Level Estimated
08:20 63.2432 1.3814 276° West  Level Estimated
08:21 63.2539 1.1253 275° West  Level Estimated
08:22 63.2641 0.8690 275° West  Level Estimated
08:23 63.2739 0.6126 275° West  Level Estimated
08:24 63.2833 0.3560 275° West  Level Estimated
08:25 63.2921 0.0993 275° West  Level Estimated
08:26 63.3005 -0.1577 274° West  Level Estimated
08:27 63.3085 -0.4147 274° West  Level Estimated
08:28 63.3160 -0.6719 274° West  Level Estimated
08:29 63.3230 -0.9293 274° West  Level Estimated
08:30 63.3296 -1.1867 273° West  Level Estimated
08:31 63.3356 -1.4443 273° West  Level Estimated
08:32 63.3413 -1.7019 273° West  Level Estimated
08:33 63.3464 -1.9597 273° West  Level Estimated
08:34 63.3511 -2.2176 272° West  Level Estimated
08:35 63.3554 -2.4755 272° West  Level Estimated
08:36 63.3591 -2.7335 272° West  Level Estimated
08:37 63.3624 -2.9916 272° West  Level Estimated
08:38 63.3653 -3.2497 272° West  Level Estimated
08:39 63.3676 -3.5079 271° West  Level Estimated
08:40 63.3695 -3.7661 271° West  Level Estimated
08:41 63.3710 -4.0244 271° West  Level Estimated
08:42 63.3719 -4.2826 271° West  Level Estimated
08:43 63.3724 -4.5409 270° West  Level Estimated
08:44 63.3725 -4.7992 270° West  Level Estimated
08:45 63.3721 -5.0574 270° West  Level Estimated
08:46 63.3712 -5.3157 270° West  Level Estimated
08:47 63.3698 -5.5740 269° West  Level Estimated
08:48 63.3680 -5.8322 269° West  Level Estimated
08:49 63.3657 -6.0904 269° West  Level Estimated
08:50 63.3629 -6.3485 269° West  Level Estimated
08:51 63.3597 -6.6066 269° West  Level Estimated
08:52 63.3560 -6.8646 268° West  Level Estimated
08:53 63.3518 -7.1226 268° West  Level Estimated
08:54 63.3472 -7.3804 268° West  Level Estimated
08:55 63.3421 -7.6382 268° West  Level Estimated
08:56 63.3366 -7.8959 267° West  Level Estimated
08:57 63.3305 -8.1535 267° West  Level Estimated
08:58 63.3241 -8.4109 267° West  Level Estimated
08:59 63.3171 -8.6683 267° West  Level Estimated
09:00 63.3097 -8.9255 266° West  Level Estimated
09:01 63.3018 -9.1826 266° West  Level Estimated
09:02 63.2935 -9.4395 266° West  Level Estimated
09:03 63.2847 -9.6963 266° West  Level Estimated
09:04 63.2754 -9.9530 266° West  Level Estimated
09:05 63.2657 -10.2094 265° West  Level Estimated
09:06 63.2555 -10.4657 265° West  Level Estimated
09:07 63.2449 -10.7218 265° West  Level Estimated
09:08 63.2338 -10.9777 265° West  Level Estimated
09:09 63.2222 -11.2334 264° West  Level Estimated
09:10 63.2102 -11.4889 264° West  Level Estimated
09:11 63.1977 -11.7442 264° West  Level Estimated
09:12 63.1848 -11.9992 264° West  Level Estimated
09:13 63.1714 -12.2541 263° West  Level Estimated
09:14 63.1576 -12.5086 263° West  Level Estimated
09:15 63.1432 -12.7630 263° West  Level Estimated
09:16 63.1285 -13.0171 263° West  Level Estimated
09:17 63.1133 -13.2709 263° West  Level Estimated
09:18 63.0976 -13.5244 262° West  Level Estimated
09:19 63.0815 -13.7777 262° West  Level Estimated
09:20 63.0649 -14.0307 262° West  Level Estimated
09:21 63.0479 -14.2834 262° West  Level Estimated
09:22 63.0304 -14.5358 261° West  Level Estimated
09:23 63.0125 -14.7879 261° West  Level Estimated
09:24 62.9941 -15.0397 261° West  Level Estimated
09:25 62.9753 -15.2911 261° West  Level Estimated
09:26 62.9561 -15.5422 261° West  Level Estimated
09:27 62.9364 -15.7930 260° West  Level Estimated
09:28 62.9162 -16.0435 260° West  Level Estimated
09:29 62.8956 -16.2936 260° West  Level Estimated
09:30 62.8746 -16.5434 260° West  Level Estimated
09:31 62.8531 -16.7928 259° West  Level Estimated
09:32 62.8312 -17.0418 259° West  Level Estimated
09:33 62.8088 -17.2904 259° West  Level Estimated
09:34 62.7860 -17.5387 259° West  Level Estimated
09:35 62.7628 -17.7866 259° West  Level Estimated
09:36 62.7391 -18.0341 258° West  Level Estimated
09:37 62.7150 -18.2812 258° West  Level Estimated
09:38 62.6905 -18.5278 258° West  Level Estimated
09:39 62.6655 -18.7741 258° West  Level Estimated
09:40 62.6401 -19.0200 257° West  Level Estimated
09:41 62.6143 -19.2654 257° West  Level Estimated
09:42 62.5880 -19.5104 257° West  Level Estimated
09:43 62.5614 -19.7549 257° West  Level Estimated
09:44 62.5342 -19.9991 257° West  Level Estimated
09:45 62.5067 -20.2427 256° West  Level Estimated
09:46 62.4787 -20.4859 256° West  Level Estimated
09:47 62.4504 -20.7287 256° West  Level Estimated
09:48 62.4216 -20.9710 256° West  Level Estimated
09:49 62.3923 -21.2128 255° West  Level Estimated
09:50 62.3627 -21.4542 255° West  Level Estimated
09:51 62.3326 -21.6950 255° West  Level Estimated
09:52 62.3022 -21.9354 255° West  Level Estimated
09:53 62.2713 -22.1753 255° West  Level Estimated
09:54 62.2400 -22.4147 254° West  Level Estimated
09:55 62.2083 -22.6536 254° West  Level Estimated
09:56 62.1762 -22.8920 254° West  Level Estimated
09:57 62.1436 -23.1299 254° West  Level Estimated
09:58 62.1107 -23.3673 254° West  Level Estimated
09:59 62.0774 -23.6041 253° West  Level Estimated
10:00 62.0436 -23.8404 253° West  Level Estimated
10:01 62.0094 -24.0762 253° West  Level Estimated
10:02 61.9749 -24.3115 253° West  Level Estimated
10:03 61.9399 -24.5462 253° West  Level Estimated
10:04 61.9046 -24.7805 252° West  Level Estimated
10:05 61.8689 -25.0141 252° West  Level Estimated
10:06 61.8327 -25.2472 252° West  Level Estimated
10:07 61.7962 -25.4798 252° West  Level Estimated
10:08 61.7593 -25.7118 252° West  Level Estimated
10:09 61.7219 -25.9432 251° West  Level Estimated
10:10 61.6842 -26.1741 251° West  Level Estimated
10:11 61.6461 -26.4044 251° West  Level Estimated
10:12 61.6077 -26.6341 251° West  Level Estimated
10:13 61.5688 -26.8633 250° West  Level Estimated
10:14 61.5295 -27.0919 250° West  Level Estimated
10:15 61.4899 -27.3199 250° West  Level Estimated
10:16 61.4499 -27.5473 250° West  Level Estimated
10:17 61.4095 -27.7742 250° West  Level Estimated
10:18 61.3688 -28.0005 249° West  Level Estimated
10:19 61.3276 -28.2261 249° West  Level Estimated
10:20 61.2861 -28.4512 249° West  Level Estimated
10:21 61.2442 -28.6756 249° West  Level Estimated
10:22 61.2020 -28.8995 249° West  Level Estimated
10:23 61.1594 -29.1228 248° West  Level Estimated
10:24 61.1164 -29.3455 248° West  Level Estimated
10:25 61.0730 -29.5675 248° West  Level Estimated
10:26 61.0293 -29.7890 248° West  Level Estimated
10:27 60.9852 -30.0098 248° West  Level Estimated
10:28 60.9408 -30.2300 248° West  Level Estimated
10:29 60.8960 -30.4496 247° West  Level Estimated
10:30 60.8509 -30.6686 247° West  Level Estimated
10:31 60.8054 -30.8870 247° West  Level Estimated
10:32 60.7595 -31.1047 247° West  Level Estimated
10:33 60.7133 -31.3219 247° West  Level Estimated
10:34 60.6667 -31.5384 246° West  Level Estimated
10:35 60.6198 -31.7542 246° West  Level Estimated
10:36 60.5726 -31.9695 246° West  Level Estimated
10:37 60.5249 -32.1841 246° West  Level Estimated
10:38 60.4770 -32.3981 246° West  Level Estimated
10:39 60.4287 -32.6114 245° Southwest  Level Estimated
10:40 60.3801 -32.8241 245° Southwest  Level Estimated
10:41 60.3311 -33.0362 245° Southwest  Level Estimated
10:42 60.2818 -33.2476 245° Southwest  Level Estimated
10:43 60.2322 -33.4584 245° Southwest  Level Estimated
10:44 60.1822 -33.6686 245° Southwest  Level Estimated
10:45 60.1319 -33.8781 244° Southwest  Level Estimated
10:46 60.0813 -34.0869 244° Southwest  Level Estimated
10:47 60.0303 -34.2952 244° Southwest  Level Estimated
10:48 59.9790 -34.5028 244° Southwest  Level Estimated
10:49 59.9274 -34.7097 244° Southwest  Level Estimated
10:50 59.8755 -34.9160 243° Southwest  Level Estimated
10:51 59.8233 -35.1217 243° Southwest  Level Estimated
10:52 59.7707 -35.3267 243° Southwest  Level Estimated
10:53 59.7178 -35.5310 243° Southwest  Level Estimated
10:54 59.6646 -35.7347 243° Southwest  Level Estimated
10:55 59.6111 -35.9378 243° Southwest  Level Estimated
10:56 59.5572 -36.1402 242° Southwest  Level Estimated
10:57 59.5031 -36.3420 242° Southwest  Level Estimated
10:58 59.4486 -36.5431 242° Southwest  Level Estimated
10:59 59.3938 -36.7436 242° Southwest  Level Estimated
11:00 59.3388 -36.9434 242° Southwest  Level Estimated
11:01 59.2834 -37.1426 242° Southwest  Level Estimated
11:02 59.2277 -37.3411 241° Southwest  Level Estimated
11:03 59.1717 -37.5390 241° Southwest  Level Estimated
11:04 59.1155 -37.7362 241° Southwest  Level Estimated
11:05 59.0589 -37.9328 241° Southwest  Level Estimated
11:06 59.0020 -38.1287 241° Southwest  Level Estimated
11:07 58.9448 -38.3240 240° Southwest  Level Estimated
11:08 58.8874 -38.5186 240° Southwest  Level Estimated
11:09 58.8296 -38.7126 240° Southwest  Level Estimated
11:10 58.7716 -38.9060 240° Southwest  Level Estimated
11:11 58.7132 -39.0987 240° Southwest  Level Estimated
11:12 58.6546 -39.2907 240° Southwest  Level Estimated
11:13 58.5957 -39.4821 239° Southwest  Level Estimated
11:14 58.5365 -39.6729 239° Southwest  Level Estimated
11:15 58.4771 -39.8630 239° Southwest  Level Estimated
11:16 58.4173 -40.0524 239° Southwest  Level Estimated
11:17 58.3573 -40.2413 239° Southwest  Level Estimated
11:18 58.2970 -40.4295 239° Southwest  Level Estimated
11:19 58.2364 -40.6170 239° Southwest  Level Estimated
11:20 58.1755 -40.8039 238° Southwest  Level Estimated
11:21 58.1144 -40.9902 238° Southwest  Level Estimated
11:22 58.0530 -41.1758 238° Southwest  Level Estimated
11:23 57.9913 -41.3607 238° Southwest  Level Estimated
11:24 57.9294 -41.5451 238° Southwest  Level Estimated
11:25 57.8672 -41.7288 238° Southwest  Level Estimated
11:26 57.8048 -41.9119 237° Southwest  Level Estimated
11:27 57.7420 -42.0943 237° Southwest  Level Estimated
11:28 57.6790 -42.2761 237° Southwest  Level Estimated
11:29 57.6158 -42.4573 237° Southwest  Level Estimated
11:30 57.5523 -42.6379 237° Southwest  Level Estimated
11:31 57.4885 -42.8178 237° Southwest  Level Estimated
11:32 57.4245 -42.9971 237° Southwest  Level Estimated
11:33 57.3602 -43.1757 236° Southwest  Level Estimated
11:34 57.2957 -43.3537 236° Southwest  Level Estimated
11:35 57.2309 -43.5312 236° Southwest  Level Estimated
11:36 57.1659 -43.7080 236° Southwest  Level Estimated
11:36 63.3667 -55.9667 235° Southwest 300 345 36,000  Level Gander Center
11:37 57.0998 -43.8864 236° Southwest  Level Estimated
11:37 63.3167 -56.2000 245° Southwest 440 506 36,000  Level Gander Center
11:38 57.0335 -44.0641 236° Southwest  Level Estimated
11:38 63.2333 -56.3833 225° Southwest 450 518 36,000  Level Gander Center
11:39 56.9668 -44.2413 235° Southwest  Level Estimated
11:39 63.1667 -56.6167 238° Southwest 440 506 36,000  Level Gander Center
11:40 56.9000 -44.4178 235° Southwest  Level Estimated
11:40 63.1000 -56.8500 238° Southwest 440 506 36,000  Level Gander Center
11:41 56.8329 -44.5937 235° Southwest  Level Estimated
11:41 63.0333 -57.0500 234° Southwest 440 506 36,000  Level Gander Center
11:42 62.9667 -57.2667 236° Southwest 440 506 36,000  Level Gander Center
11:43 62.8833 -57.5000 232° Southwest 440 506 36,000  Level Gander Center
11:44 62.8167 -57.7000 234° Southwest 440 506 36,000  Level Gander Center
11:45 62.7333 -57.9167 230° Southwest 440 506 36,000  Level Gander Center
11:46 62.6500 -58.1500 232° Southwest 450 518 36,000  Level Gander Center
11:48 62.5167 -58.5833 236° Southwest 440 506 36,000  Level Gander Center
11:49 62.4333 -58.7833 228° Southwest 440 506 36,000  Level Gander Center
11:50 62.3667 -59.0000 237° Southwest 440 506 36,000  Level Gander Center
11:51 62.3000 -59.2167 237° Southwest 450 518 36,000  Level Gander Center
11:53 62.1500 -59.5500 226° Southwest 440 506 36,000  Level Montreal Center
11:54 62.0667 -59.8333 238° Southwest 450 518 36,000  Level Gander Center
11:55 61.9833 -60.0167 226° Southwest 450 518 36,000  Level Gander Center
11:56 61.8833 -60.1833 218° Southwest 450 518 36,000  Level Gander Center
11:57 61.7833 -60.4000 226° Southwest 450 518 36,000  Level Gander Center
11:58 61.7167 -60.5500 227° Southwest 450 518 36,000  Level Gander Center
11:59 61.6167 -60.7167 218° Southwest 450 518 36,000  Level Gander Center
12:00 61.5167 -60.9000 221° Southwest 450 518 36,000  Level Gander Center
12:01 61.4333 -61.0667 224° Southwest 450 518 36,000  Level Gander Center
12:02 61.3333 -61.2500 221° Southwest 450 518 36,000  Level Gander Center
12:03 61.2333 -61.4167 219° Southwest 460 529 36,000  Level Gander Center
12:04 61.1333 -61.5833 219° Southwest 460 529 36,000  Level Gander Center
12:05 61.0500 -61.7667 227° Southwest 450 518 36,000  Level Gander Center
12:06 60.9500 -61.9333 219° Southwest 450 518 36,000  Level Gander Center
12:07 60.8500 -62.1000 219° Southwest 450 518 36,000  Level Gander Center
12:08 60.7833 -62.2000 216° Southwest 440 506 36,000  Level Gander Center
12:09 60.6833 -62.3667 219° Southwest 440 506 36,000  Level Gander Center
12:10 60.6000 -62.6000 234° Southwest 440 506 36,000  Level Gander Center
12:11 60.5333 -62.8333 240° Southwest 450 518 36,000  Level Gander Center
12:12 60.5000 -63.0667 254° West 450 518 36,000  Level Gander Center
12:13 60.4667 -63.3000 254° West 450 518 36,000  Level Gander Center
12:14 60.4167 -63.5333 247° West 450 518 36,000  Level Gander Center
12:15 60.3833 -63.7667 254° West 440 506 36,000  Level Gander Center
12:16 60.3167 -64.0000 240° Southwest 450 518 36,000  Level Gander Center
12:17 60.2833 -64.2333 254° West 450 518 36,000  Level Gander Center
12:18 60.2333 -64.4667 247° West 440 506 36,000  Level Gander Center
12:19 60.2000 -64.7000 254° West 450 518 36,000  Level Gander Center
12:20 60.1333 -64.9167 238° Southwest 440 506 36,000  Level Gander Center
12:21 60.0833 -65.1500 247° West 440 506 36,000  Level Gander Center
12:22 60.0000 -65.3500 230° Southwest 440 506 36,000  Level Gander Center
12:23 59.9000 -65.4667 210° Southwest 440 506 36,000  Level Gander Center
12:24 59.8167 -65.6500 228° Southwest 440 506 36,000  Level Gander Center
12:25 59.7333 -65.8000 222° Southwest 440 506 36,000  Level Gander Center
12:26 59.6333 -65.9667 220° Southwest 440 506 36,000  Level Gander Center
12:27 59.5500 -66.1167 222° Southwest 440 506 36,000  Level Gander Center
12:28 59.4667 -66.2667 222° Southwest 440 506 36,000  Level Gander Center
12:29 59.3500 -66.4500 219° Southwest 440 506 36,000  Level Gander Center
12:30 59.2667 -66.6000 223° Southwest 440 506 36,000  Level Gander Center
12:31 59.1833 -66.7500 223° Southwest 440 506 36,000  Level Gander Center
12:32 59.0833 -66.9000 218° Southwest 440 506 36,000  Level Gander Center
12:33 59.0000 -67.0333 220° Southwest 440 506 36,000  Level Gander Center
12:34 58.9000 -67.1833 218° Southwest 440 506 36,000  Level Gander Center
12:35 58.8000 -67.3333 218° Southwest 440 506 36,000  Level Gander Center
12:36 58.7167 -67.4833 223° Southwest 440 506 36,000  Level Gander Center
12:37 58.6167 -67.6500 221° Southwest 440 506 36,000  Level Gander Center
12:38 58.5333 -67.8000 223° Southwest 440 506 36,000  Level Gander Center
12:39 58.4333 -67.9500 218° Southwest 430 495 36,000  Level Gander Center
12:40 58.3500 -68.0833 220° Southwest 430 495 36,000  Level Gander Center
12:41 58.2333 -68.2167 211° Southwest 440 506 36,000  Level Gander Center
12:42 58.1500 -68.4000 229° Southwest 460 529 36,000  Level Gander Center
12:43 58.1000 -68.4167 190° South 520 598 36,000  Level Montreal Center
12:44 57.9833 -68.5333 208° Southwest 450 518 36,000  Level Montreal Center
12:45 57.9000 -68.6667 220° Southwest 430 495 36,000  Level Montreal Center
12:46 57.8000 -68.8167 219° Southwest 430 495 36,000  Level Montreal Center
12:47 57.7000 -68.9333 212° Southwest 430 495 36,000  Level Montreal Center
12:48 57.6167 -69.0833 224° Southwest 430 495 36,000  Level Montreal Center
12:49 57.5167 -69.1833 208° Southwest 420 483 36,000  Level Montreal Center
12:50 57.4167 -69.3333 219° Southwest 420 483 36,000  Level Montreal Center
12:51 57.3167 -69.4833 219° Southwest 420 483 36,000  Level Montreal Center
12:52 57.2167 -69.5833 208° Southwest 430 495 36,000  Level Montreal Center
12:53 57.1167 -69.7333 219° Southwest 430 495 36,000  Level Montreal Center
12:54 57.0333 -69.8333 213° Southwest 430 495 36,000  Level Montreal Center
12:55 56.9333 -69.9667 216° Southwest 420 483 36,000  Level Montreal Center
12:56 56.8333 -70.0833 213° Southwest 420 483 36,000  Level Montreal Center
12:57 56.7333 -70.2167 216° Southwest 420 483 36,000  Level Montreal Center
12:58 56.6333 -70.3333 213° Southwest 420 483 36,000  Level Montreal Center
12:59 56.5333 -70.4667 216° Southwest 420 483 36,000  Level Montreal Center
13:00 56.4333 -70.5667 209° Southwest 420 483 36,000  Level Montreal Center
13:01 56.3500 -70.7000 222° Southwest 420 483 36,000  Level Montreal Center
13:02 56.2500 -70.8167 213° Southwest 420 483 36,000  Level Montreal Center
13:03 56.1500 -70.9500 217° Southwest 420 483 36,000  Level Montreal Center
13:04 56.0500 -71.0500 209° Southwest 420 483 36,000  Level Montreal Center
13:05 55.9500 -71.1833 217° Southwest 420 483 36,000  Level Montreal Center
13:06 55.8667 -71.2833 214° Southwest 410 472 36,000  Level Montreal Center
13:07 55.7667 -71.3833 209° Southwest 410 472 36,000  Level Montreal Center
13:08 55.6667 -71.5167 217° Southwest 410 472 36,000  Level Montreal Center
13:09 55.5667 -71.6167 209° Southwest 420 483 36,000  Level Montreal Center
13:10 55.4667 -71.7500 217° Southwest 410 472 36,000  Level Montreal Center
13:11 55.3667 -71.8500 210° Southwest 410 472 36,000  Level Montreal Center
13:12 55.2833 -71.9667 219° Southwest 410 472 36,000  Level Montreal Center
13:13 55.2000 -72.0667 214° Southwest 410 472 36,000  Level Montreal Center
13:14 55.1000 -72.1667 210° Southwest 410 472 36,000  Level Montreal Center
13:15 55.0000 -72.3000 217° Southwest 410 472 36,000  Level Montreal Center
13:16 54.9000 -72.3833 206° Southwest 410 472 36,000  Level Montreal Center
13:17 54.8000 -72.5167 218° Southwest 410 472 36,000  Level Montreal Center
13:18 54.7000 -72.6167 210° Southwest 410 472 36,000  Level Montreal Center
13:19 54.6167 -72.7333 219° Southwest 400 460 36,000  Level Montreal Center
13:20 54.5167 -72.8333 210° Southwest 400 460 36,000  Level Montreal Center
13:21 54.4167 -72.9167 206° Southwest 410 472 36,000  Level Montreal Center
13:22 54.3333 -73.0500 223° Southwest 400 460 36,000  Level Montreal Center
13:23 54.2333 -73.1333 206° Southwest 400 460 36,000  Level Montreal Center
13:24 54.1333 -73.2333 210° Southwest 400 460 36,000  Level Montreal Center
13:25 54.0333 -73.3500 214° Southwest 400 460 36,000  Level Montreal Center
13:26 53.9333 -73.4500 210° Southwest 400 460 36,000  Level Montreal Center
13:27 53.8500 -73.5333 211° Southwest 410 472 36,000  Level Montreal Center
13:28 53.7500 -73.6500 215° Southwest 400 460 36,000  Level Montreal Center
13:29 53.6500 -73.7500 211° Southwest 400 460 36,000  Level Montreal Center
13:30 53.5500 -73.8333 206° Southwest 410 472 36,000  Level Montreal Center
13:31 53.4500 -73.9000 202° Southwest 400 460 36,000  Level Montreal Center
13:32 53.3333 -73.9833 203° Southwest 400 460 36,000  Level Montreal Center
13:33 53.2333 -74.0833 211° Southwest 400 460 36,000  Level Montreal Center
13:34 53.1333 -74.1667 207° Southwest 400 460 36,000  Level Montreal Center
13:35 53.0333 -74.2500 207° Southwest 400 460 36,000  Level Montreal Center
13:36 52.9500 -74.3500 216° Southwest 400 460 36,000  Level Montreal Center
13:37 52.8333 -74.4000 195° South 400 460 36,000  Level Montreal Center
13:38 52.7333 -74.4833 207° Southwest 400 460 36,000  Level Montreal Center
13:39 52.6500 -74.5833 216° Southwest 400 460 36,000  Level Montreal Center
13:40 52.5500 -74.6667 207° Southwest 400 460 36,000  Level Montreal Center
13:41 52.4333 -74.7500 204° Southwest 400 460 36,000  Level Montreal Center
13:42 52.3333 -74.8000 197° South 400 460 36,000  Level Montreal Center
13:43 52.2333 -74.9000 211° Southwest 380 437 36,000  Level Montreal Center
13:44 52.1333 -74.9833 207° Southwest 390 449 36,000  Level Montreal Center
13:45 52.0333 -75.0667 207° Southwest 400 460 36,000  Level Montreal Center
13:46 51.9500 -75.1167 200° South 400 460 36,000  Level Montreal Center
13:47 51.8333 -75.2000 204° Southwest 390 449 36,000  Level Montreal Center
13:48 51.7500 -75.2833 212° Southwest 380 437 36,000  Level Montreal Center
13:49 51.6500 -75.3333 197° South 390 449 36,000  Level Montreal Center
13:50 51.5500 -75.4167 207° Southwest 390 449 36,000  Level Montreal Center
13:51 51.4667 -75.5000 212° Southwest 380 437 36,000  Level Montreal Center
13:52 51.3667 -75.5833 207° Southwest 390 449 36,000  Level Montreal Center
13:53 51.2667 -75.6500 203° Southwest 380 437 36,000  Level Montreal Center
13:54 51.1667 -75.7167 203° Southwest 380 437 36,000  Level Montreal Center
13:55 51.0667 -75.8000 208° Southwest 380 437 36,000  Level Montreal Center
13:56 50.9667 -75.8500 197° South 380 437 36,000  Level Montreal Center
13:57 50.8833 -75.9333 212° Southwest 380 437 36,000  Level Montreal Center
13:58 50.7833 -76.0167 208° Southwest 380 437 36,000  Level Montreal Center
13:59 50.6833 -76.0667 198° South 390 449 36,000  Level Montreal Center
14:00 50.6000 -76.1500 212° Southwest 390 449 36,000  Level Montreal Center
14:01 50.4833 -76.2333 204° Southwest 390 449 36,000  Level Montreal Center
14:02 50.4000 -76.3167 213° Southwest 390 449 36,000  Level Montreal Center
14:03 50.3000 -76.3667 198° South 390 449 36,000  Level Montreal Center
14:04 50.2000 -76.4333 203° Southwest 390 449 36,000  Level Montreal Center
14:05 50.0833 -76.5167 205° Southwest 390 449 36,000  Level Montreal Center
14:06 49.9833 -76.6000 208° Southwest 390 449 36,000  Level Montreal Center
14:07 49.8833 -76.6500 198° South 390 449 36,000  Level Montreal Center
14:08 49.7833 -76.7167 203° Southwest 390 449 36,000  Level Montreal Center
14:09 49.6833 -76.8000 208° Southwest 390 449 36,000  Level Montreal Center
14:10 49.5833 -76.8667 203° Southwest 390 449 36,000  Level Montreal Center
14:11 49.5000 -76.9167 201° Southwest 380 437 36,000  Level Montreal Center
14:12 49.3833 -77.0000 205° Southwest 420 483 36,000  Level Montreal Center
14:13 49.3000 -77.0667 208° Southwest 390 449 36,000  Level Montreal Center
14:14 49.1833 -77.1500 205° Southwest 390 449 36,000  Level Montreal Center
14:15 49.0833 -77.2000 198° South 410 472 36,000  Level Montreal Center
14:16 48.9833 -77.2667 204° Southwest 400 460 36,000  Level Montreal Center
14:17 48.8667 -77.3500 205° Southwest 400 460 36,000  Level Montreal Center
14:18 48.7667 -77.4167 204° Southwest 390 449 36,000  Level Montreal Center
14:19 48.6667 -77.5000 209° Southwest 400 460 36,000  Level Montreal Center
14:20 48.5667 -77.5667 204° Southwest 400 460 36,000  Level Montreal Center
14:21 48.4667 -77.6333 204° Southwest 400 460 36,000  Level Montreal Center
14:22 48.3667 -77.6833 198° South 400 460 36,000  Level Montreal Center
14:23 48.2667 -77.7667 209° Southwest 400 460 36,000  Level Montreal Center
14:24 48.1667 -77.8333 204° Southwest 400 460 36,000  Level Montreal Center
14:25 48.0667 -77.9000 204° Southwest 390 449 36,000  Level Montreal Center
14:26 47.9500 -77.9500 196° South 390 449 36,000  Level Montreal Center
14:27 47.8500 -78.0167 204° Southwest 390 449 36,000  Level Montreal Center
14:28 47.7500 -78.0667 199° South 390 449 36,000  Level Montreal Center
14:29 47.6500 -78.1333 204° Southwest 390 449 36,000  Level Montreal Center
14:30 47.5500 -78.1833 199° South 380 437 36,000  Level Montreal Center
14:31 47.4667 -78.2333 202° Southwest 390 449 36,000  Level Montreal Center
14:32 47.3500 -78.3000 201° Southwest 380 437 36,000  Level Montreal Center
14:33 47.2667 -78.3500 202° Southwest 380 437 36,000  Level Montreal Center
14:34 47.1500 -78.4167 201° Southwest 380 437 36,000  Level Montreal Center
14:35 47.0500 -78.4833 204° Southwest 390 449 36,000  Level Montreal Center
14:36 46.9500 -78.5167 193° South 390 449 36,000  Level Montreal Center
14:37 46.8500 -78.6000 210° Southwest 390 449 36,000  Level Montreal Center
14:37 46.8000 -78.5833 167° South 390 449 36,000  Level Toronto Center
14:38 46.7000 -78.6333 199° South 390 449 36,000  Level Toronto Center
14:39 46.6000 -78.6833 199° South 390 449 36,000  Level Toronto Center
14:40 46.5000 -78.7667 210° Southwest 390 449 36,000  Level Toronto Center
14:41 46.4000 -78.8167 199° South 390 449 36,000  Level Toronto Center
14:42 46.3000 -78.8667 199° South 390 449 36,000  Level Toronto Center
14:43 46.2000 -78.9167 199° South 380 437 36,000  Level Toronto Center
14:44 46.1000 -78.9667 199° South 380 437 36,000  Level Toronto Center
14:45 46.0000 -79.0333 205° Southwest 380 437 36,000  Level Toronto Center
14:46 45.9000 -79.0833 199° South 380 437 36,000  Level Toronto Center
14:47 45.8000 -79.1333 199° South 380 437 36,000  Level Toronto Center
14:48 45.7000 -79.1833 199° South 380 437 36,000  Level Toronto Center
14:49 45.6000 -79.2333 199° South 380 437 36,000  Level Toronto Center
14:50 45.5000 -79.2833 199° South 380 437 36,000  Level Toronto Center
14:51 45.4000 -79.3500 205° Southwest 380 437 36,000  Level Toronto Center
14:52 45.3000 -79.4000 199° South 380 437 36,000  Level Toronto Center
14:53 45.2000 -79.4500 199° South 380 437 36,000  Level Toronto Center
14:59 44.6297 -79.7687 199° South 384 442 36,000  Level FlightAware ADS-B
15:01 44.4837 -79.8816 209° Southwest 366 421 36,000  Level FlightAware ADS-B
15:02 44.3860 -79.9700 213° Southwest 370 426 36,000  Level FlightAware ADS-B
15:03 44.3045 -80.0430 213° Southwest 371 427 36,000  Level FlightAware ADS-B
15:03 44.2456 -80.0958 213° Southwest 371 427 36,000  Level FlightAware ADS-B
15:04 44.1833 -80.1513 213° Southwest 372 428 36,000  Level FlightAware ADS-B
15:05 44.1217 -80.2061 213° Southwest 371 427 36,000  Level FlightAware ADS-B
15:06 44.0681 -80.2537 213° Southwest 371 427 36,000  Level FlightAware ADS-B
15:06 44.0125 -80.3031 213° Southwest 372 428 36,000  Level FlightAware ADS-B
15:07 43.9493 -80.3590 213° Southwest 373 429 36,000  Level FlightAware ADS-B
15:07 43.8924 -80.4091 212° Southwest 374 430 36,000  Level FlightAware ADS-B
15:08 43.8343 -80.4603 212° Southwest 374 430 36,000  Level FlightAware ADS-B
15:09 43.7820 -80.5061 212° Southwest 375 432 36,000  Level FlightAware ADS-B
15:10 43.7171 -80.5629 212° Southwest 375 432 36,000  Level FlightAware ADS-B
15:10 43.6573 -80.6152 212° Southwest 377 434 36,000  Level FlightAware ADS-B
15:11 43.6109 -80.6556 212° Southwest 378 435 36,000  Level FlightAware ADS-B
15:12 43.5395 -80.7177 212° Southwest 379 436 36,000  Level FlightAware ADS-B
15:12 43.4816 -80.7680 212° Southwest 380 437 36,000  Level FlightAware ADS-B
15:13 43.4306 -80.8122 212° Southwest 379 436 36,000  Level FlightAware ADS-B
15:14 43.3648 -80.8689 212° Southwest 379 436 36,000  Level FlightAware ADS-B
15:14 43.3003 -80.9245 212° Southwest 379 436 36,000  Level FlightAware ADS-B
15:15 43.2094 -81.0025 212° Southwest 380 437 36,000  Level FlightAware ADS-B
15:16 43.1514 -81.0521 212° Southwest 379 436 36,000  Level FlightAware ADS-B
15:17 43.0910 -81.1036 212° Southwest 377 434 36,000  Level FlightAware ADS-B
15:17 43.0306 -81.1529 211° Southwest 383 441 36,000  Level FlightAware ADS-B
15:18 42.9747 -81.1872 204° Southwest 386 444 36,000  Level FlightAware ADS-B
15:18 42.9061 -81.2303 205° Southwest 384 442 36,000  Level FlightAware ADS-B
15:19 42.8379 -81.2726 204° Southwest 384 442 36,000  Level FlightAware ADS-B
15:20 42.7739 -81.3121 204° Southwest 385 443 36,000  Level FlightAware ADS-B
15:21 42.6785 -81.3707 204° Southwest 388 447 36,000  Level FlightAware ADS-B
15:22 42.5750 -81.4340 204° Southwest 387 445 36,000  Level FlightAware ADS-B
15:23 42.5169 -81.4694 204° Southwest 386 444 36,000  Level FlightAware ADS-B
15:25 42.3171 -81.5906 204° Southwest 385 443 36,000  Level FlightAware ADS-B
15:25 42.2655 -81.6218 204° Southwest 386 444 36,000  Level FlightAware ADS-B
15:26 42.1836 -81.6713 204° Southwest 386 444 36,000  Level FlightAware ADS-B
15:27 42.0722 -81.7378 204° Southwest 385 443 36,000  Level Cleveland Center
15:28 41.9575 -81.8064 204° Southwest 385 443 36,000  Level Cleveland Center
15:29 41.8589 -81.8667 204° Southwest 387 445 36,000  Level Cleveland Center
15:30 41.7592 -81.9253 204° Southwest 388 447 36,000  Level Cleveland Center
15:31 41.6597 -81.9847 204° Southwest 389 448 36,000  Level Cleveland Center
15:32 41.5600 -82.0436 204° Southwest 390 449 36,000  Level Cleveland Center
15:33 41.4428 -82.1119 204° Southwest 394 453 36,000  Level Cleveland Center
15:34 41.3411 -82.1686 203° Southwest 395 455 36,000  Level Cleveland Center
15:36 41.2300 -82.2069 195° South 409 471 36,000  Level Cleveland Center
15:37 41.1200 -82.2472 195° South 409 471 36,000  Level Cleveland Center
15:38 41.0097 -82.2858 195° South 408 470 36,000  Level Cleveland Center
15:43 40.9043 -82.3242 195° South 403 464 36,000  Level FlightAware ADS-B
15:46 40.0365 -82.5955 193° South 424 488 36,000  Level FlightAware ADS-B
15:47 39.9507 -82.6019 183° South 427 491 36,000  Level FlightAware ADS-B
15:48 39.9348 -82.6030 183° South 430 495 36,000  Level FlightAware ADS-B (KPMH)
15:48 39.8334 -82.6100 183° South 432 497 36,000  Level FlightAware ADS-B
15:49 39.7132 -82.6181 183° South 430 495 36,000  Level FlightAware ADS-B (KPMH)
15:50 39.6220 -82.6242 183° South 429 494 36,000  Level FlightAware ADS-B (KPMH)
15:50 39.5741 -82.6274 183° South 431 496 36,000  Level FlightAware ADS-B (KPMH)
15:51 39.4857 -82.6334 183° South 432 497 36,000  Level FlightAware ADS-B (KPMH)
15:52 39.4054 -82.6388 183° South 432 497 36,000  Level FlightAware ADS-B (KPMH)
15:52 39.3226 -82.6442 183° South 431 496 36,000  Level FlightAware ADS-B (KPMH)
15:53 39.2558 -82.6487 183° South 431 496 36,000  Level FlightAware ADS-B (KPMH)
15:54 39.1698 -82.6543 183° South 431 496 36,000  Level FlightAware ADS-B (KPMH)
15:54 39.0938 -82.6593 183° South 429 494 36,000  Level FlightAware ADS-B (KPMH)
15:55 39.0126 -82.6647 183° South 429 494 36,000  Level FlightAware ADS-B (KPMH)
15:56 38.9270 -82.6704 183° South 429 494 36,000  Level FlightAware ADS-B (KPMH)
15:56 38.8509 -82.6755 183° South 430 495 36,000  Level FlightAware ADS-B (KPMH)
15:57 38.7729 -82.6807 183° South 431 496 36,000  Level FlightAware ADS-B (KPMH)
15:58 38.6972 -82.6858 183° South 432 497 36,000  Level Indianapolis Center
15:59 38.5644 -82.6942 183° South 431 496 36,000  Level Indianapolis Center
16:00 38.4444 -82.7014 183° South 431 496 36,000  Level Indianapolis Center
16:01 38.3244 -82.7092 183° South 430 495 36,000  Level Indianapolis Center
16:02 38.1844 -82.7200 183° South 431 496 36,000  Level Indianapolis Center
16:03 38.0642 -82.7278 183° South 429 494 36,000  Level Indianapolis Center
16:04 37.9444 -82.7344 183° South 430 495 36,000  Level Indianapolis Center
16:05 37.8242 -82.7431 183° South 432 497 36,000  Level Indianapolis Center
16:06 37.7036 -82.7581 186° South 433 498 36,000  Level Indianapolis Center
16:07 37.5797 -82.8153 200° South 410 472 36,000  Level Indianapolis Center
16:08 37.4817 -82.8828 209° Southwest 402 463 36,000  Level Indianapolis Center
16:09 37.3828 -82.9472 207° Southwest 401 461 36,000  Level Indianapolis Center
16:10 37.2847 -83.0111 207° Southwest 400 460 36,000  Level Indianapolis Center
16:11 37.1861 -83.0761 208° Southwest 400 460 36,000  Level Indianapolis Center
16:12 37.0722 -83.1500 207° Southwest 400 460 36,000  Level Indianapolis Center
16:13 36.9736 -83.2128 207° Southwest 401 461 36,000  Level Indianapolis Center
16:14 36.8756 -83.2769 208° Southwest 400 460 36,000  Level Indianapolis Center
16:15 36.7769 -83.3403 207° Southwest 401 461 36,000  Level Indianapolis Center
16:16 36.6614 -83.4139 207° Southwest 400 460 36,000  Level Indianapolis Center
16:17 36.5617 -83.4772 207° Southwest 403 464 36,000  Level Indianapolis Center
16:18 36.4806 -83.5467 215° Southwest 401 461 36,000  Level Indianapolis Center
16:19 36.3931 -83.6608 226° Southwest 380 437 36,000  Level Indianapolis Center
16:21 36.3067 -83.7386 216° Southwest 391 450 36,000  Level Indianapolis Center
16:22 36.1956 -83.7828 198° South 413 475 36,000  Level Indianapolis Center
16:23 36.0833 -83.8247 197° South 417 480 36,000  Level Indianapolis Center
16:24 35.9719 -83.8683 198° South 417 480 36,000  Level Indianapolis Center
16:25 35.8594 -83.9050 195° South 416 479 36,000  Level Indianapolis Center
16:26 35.7411 -83.9344 191° South 426 490 36,000  Level Indianapolis Center
16:27 35.5742 -83.9775 192° South 433 498 36,000  Level Atlanta Center
16:28 35.4553 -84.0056 191° South 433 498 36,000  Level Atlanta Center
16:29 35.3364 -84.0336 191° South 433 498 36,000  Level Atlanta Center
16:30 35.2217 -84.0642 192° South 427 491 36,000  Level Atlanta Center
16:31 35.1006 -84.0894 190° South 432 497 36,000  Level Atlanta Center
16:32 34.9817 -84.1200 192° South 432 497 36,000  Level Atlanta Center
16:33 34.8647 -84.1475 191° South 432 497 36,000  Level Atlanta Center
16:34 34.7439 -84.1753 191° South 432 497 36,000  Level Atlanta Center
16:35 34.6269 -84.2003 190° South 432 497 36,000  Level Atlanta Center
16:36 34.5078 -84.2303 192° South 432 497 36,000  Level Atlanta Center
16:37 34.3889 -84.2578 191° South 432 497 36,000  Level Atlanta Center
16:38 34.2700 -84.2850 191° South 432 497 36,000  Level Atlanta Center
16:39 34.1489 -84.3125 191° South 432 497 36,000  Level Atlanta Center
16:40 34.0381 -84.3447 194° South 444 511 36,000 60 Level Atlanta Center
16:41 33.9192 -84.3692 190° South 449 517 36,200 300 Climbing Atlanta Center
16:42 33.7978 -84.3989 192° South 449 517 36,700 360 Climbing Atlanta Center
16:43 33.6767 -84.4258 190° South 444 511 37,000 120 Climbing Atlanta Center
16:44 33.5431 -84.4350 183° South 450 518 37,000  Level Atlanta Center
16:45 33.4136 -84.4344 180° South 450 518 37,000  Level Atlanta Center
16:46 33.2906 -84.4314 179° South 445 512 37,000  Level Atlanta Center
16:47 33.1633 -84.4308 180° South 458 527 37,000  Level Atlanta Center
16:48 33.0381 -84.4278 179° South 458 527 37,000  Level Atlanta Center
16:49 32.9233 -84.4275 180° South 458 527 37,000  Level Atlanta Center
16:50 32.7917 -84.4244 179° South 465 535 37,000  Level Atlanta Center
16:51 32.6664 -84.4189 178° South 458 527 37,000  Level Atlanta Center
16:52 32.5392 -84.4158 179° South 458 527 37,000  Level Atlanta Center
16:53 32.4119 -84.4128 179° South 458 527 37,000  Level Atlanta Center
16:54 32.2825 -84.4097 179° South 458 527 37,000  Level Atlanta Center
16:55 32.1531 -84.4069 179° South 458 527 37,000  Level Atlanta Center
17:01 31.3158 -84.3888 179° South 473 544 37,000  Level FlightAware ADS-B (KTLH)
17:02 31.2047 -84.3866 179° South 476 548 37,000  Level FlightAware ADS-B (KTLH)
17:03 31.1035 -84.3847 179° South 477 549 37,000  Level FlightAware ADS-B (KTLH)
17:04 30.9922 -84.3825 179° South 478 550 37,000  Level FlightAware ADS-B (KTLH)
17:04 30.8899 -84.3805 179° South 479 551 37,000  Level FlightAware ADS-B (KTLH)
17:05 30.7509 -84.3778 179° South 479 551 37,000  Level FlightAware ADS-B (KTLH)
17:06 30.6821 -84.3741 177° South 486 559 37,000  Level FlightAware ADS-B (KTLH)
17:07 30.5717 -84.3513 170° South 493 567 37,000  Level FlightAware ADS-B (KTLH)
17:07 30.4860 -84.3188 162° South 500 575 37,000  Level FlightAware ADS-B (KTLH)
17:08 30.4149 -84.2805 155° Southeast 506 582 37,000  Level FlightAware ADS-B (KTLH)
17:09 30.3466 -84.2358 151° Southeast 506 582 37,000  Level FlightAware ADS-B (KTLH)
17:09 30.2543 -84.1760 151° Southeast 506 582 37,000  Level FlightAware ADS-B (KTLH)
17:10 30.1606 -84.1150 151° Southeast 508 585 37,000  Level FlightAware ADS-B (KTLH)
17:11 30.0775 -84.0610 151° Southeast 509 586 37,000  Level FlightAware ADS-B (KTLH)
17:11 30.0083 -84.0160 151° Southeast 509 586 37,000  Level FlightAware ADS-B (KTLH)
17:12 29.9330 -83.9670 151° Southeast 509 586 37,000  Level FlightAware ADS-B (KTLH)
17:17 29.2667 -83.5828 153° Southeast 500 575 37,000  Level Jacksonville Center
17:22 28.6442 -83.2286 153° Southeast 505 581 37,000  Level Jacksonville Center
17:23 28.8862 -83.3700 153° Southeast  Level FlightAware Approximate
17:23 28.5211 -83.1594 154° Southeast 505 581 37,000  Level Jacksonville Center
17:26 28.4807 -83.1362 153° Southeast  Level FlightAware Approximate
17:26 28.1911 -82.9756 154° Southeast 502 578 37,000  Level Miami Center
17:27 28.3843 -83.0810 153° Southeast  Level FlightAware Approximate
17:27 28.0689 -82.9078 154° Southeast 502 578 37,000  Level Miami Center
17:28 28.2880 -83.0258 153° Southeast  Level FlightAware Approximate
17:28 27.9325 -82.8275 153° Southeast 504 580 37,000  Level Miami Center
17:29 27.8058 -82.7647 156° South 495 570 37,000  Level Miami Center
17:30 27.6936 -82.7542 175° South 471 542 37,000  Level Miami Center
17:31 27.5647 -82.7453 177° South 466 536 37,000  Level Miami Center
17:32 27.4314 -82.7361 177° South 472 543 37,000  Level Miami Center
17:33 27.3044 -82.7294 177° South 472 543 37,000  Level Miami Center
17:34 27.1733 -82.7206 177° South 472 543 37,000  Level Miami Center
17:35 27.0444 -82.7117 176° South 472 543 37,000  Level Miami Center
17:36 26.8986 -82.7044 177° South 477 549 37,000  Level Miami Center
17:37 26.7653 -82.6953 176° South 477 549 37,000  Level Miami Center
17:38 26.6364 -82.6867 177° South 477 549 37,000  Level Miami Center
17:39 26.5050 -82.6800 177° South 477 549 37,000  Level Miami Center
17:40 26.3742 -82.6689 176° South 477 549 37,000  Level Miami Center
17:41 26.2450 -82.6628 178° South 477 549 37,000  Level Miami Center
17:42 26.1139 -82.6517 176° South 477 549 37,000  Level Miami Center
17:43 25.9825 -82.6453 177° South 477 549 37,000  Level Miami Center
17:44 25.8514 -82.6367 177° South 477 549 37,000  Level Miami Center
17:45 25.7225 -82.6258 176° South 477 549 37,000  Level Miami Center
17:46 25.5911 -82.6219 178° South 477 549 37,000  Level Miami Center
17:47 25.4600 -82.6111 176° South 471 542 37,000  Level Miami Center
17:48 25.3289 -82.6047 177° South 471 542 37,000  Level Miami Center
17:49 25.1975 -82.5964 177° South 476 548 37,000 -60 Level Miami Center
17:50 25.0683 -82.5881 177° South 476 548 36,900 -540 Descending Miami Center
17:51 24.9414 -82.5797 177° South 476 548 36,000 -1,200 Descending Miami Center
17:52 24.8164 -82.5739 178° South 465 535 34,500 -1,740 Descending Miami Center
17:53 24.6997 -82.5664 177° South 460 529 32,600 -1,860 Descending Miami Center
17:54 24.5811 -82.5608 178° South 449 517 30,800 -1,800 Descending Miami Center
17:55 24.4603 -82.5508 176° South 444 511 29,000 -1,800 Descending Miami Center
17:56 24.3394 -82.5453 178° South 439 505 27,300 -1,800 Descending Miami Center
17:57 24.2250 -82.5353 175° South 433 498 25,500 -1,800 Descending Miami Center
17:58 24.1144 -82.5306 178° South 420 483 23,800 -1,740 Descending Miami Center
17:59 24.0042 -82.5256 178° South 408 470 22,100 -1,740 Descending Miami Center
18:01 23.8581 -82.4964 173° South  Level FlightAware Approximate
18:08 23.0506 -82.4001 170° South  Level FlightAware Approximate
18:09 22.9891 -82.4091 180° South  Level Estimated
18:10 22.9891 -82.4091 180° South  Level Estimated
18:11 22.9891 -82.4091 180° South  Level Estimated
18:12 22.9891 -82.4091 180° South  Level Estimated
18:13 22.9891 -82.4091 180° South  Level Estimated
18:14 22.9891 -82.4091 180° South  Level Estimated
18:15 22.9891 -82.4091 180° South  Level Estimated
18:16 22.9891 -82.4091 180° South  Level Estimated
18:17 22.9891 -82.4091 180° South  Level Estimated
18:18 22.9891 -82.4091 180° South  Level Estimated
18:19 22.9891 -82.4091 180° South  Level Estimated
18:20 22.9891 -82.4091 180° South  Level Estimated
18:21 22.9891 -82.4091 180° South  Level Estimated
18:22 22.9891 -82.4091 180° South  Level Estimated
18:23 22.9891 -82.4091 180° South  Level Estimated
18:24 22.9891 -82.4091 180° South  Level Estimated
18:25 22.9891 -82.4091 180° South  Level Estimated
18:26 22.9891 -82.4091 180° South  Level Estimated
18:27 22.9891 -82.4091 180° South  Level Estimated
18:28 22.9891 -82.4091 180° South  Level Estimated
18:29 22.9891 -82.4091 180° South  Level Estimated
18:30 22.9891 -82.4091 180° South  Level Estimated
18:31 22.9891 -82.4091 180° South  Level Estimated